createdAt,value
2019-05-25T00:01:37.376Z,12.10
2019-05-25T00:04:04.569Z,12.00
2019-05-25T00:06:31.769Z,12.00
2019-05-25T00:08:59.018Z,12.00
2019-05-25T00:11:26.382Z,12.00
2019-05-25T00:13:53.589Z,11.90
2019-05-25T00:16:20.786Z,11.90
2019-05-25T00:18:48.035Z,11.80
2019-05-25T00:21:15.505Z,11.60
2019-05-25T00:23:42.712Z,11.60
2019-05-25T00:26:09.944Z,11.50
2019-05-25T00:28:37.120Z,11.60
2019-05-25T00:31:04.311Z,11.60
2019-05-25T00:33:32.104Z,11.70
2019-05-25T00:35:59.298Z,11.70
2019-05-25T00:38:26.498Z,11.60
2019-05-25T00:40:53.809Z,11.60
2019-05-25T00:43:21.000Z,11.60
2019-05-25T00:45:48.207Z,11.60
2019-05-25T00:48:15.394Z,11.60
2019-05-25T00:50:42.580Z,11.50
2019-05-25T00:53:09.776Z,11.40
2019-05-25T00:55:36.964Z,11.40
2019-05-25T00:58:04.211Z,11.40
2019-05-25T01:00:31.404Z,11.30
2019-05-25T01:02:58.609Z,11.30
2019-05-25T01:05:26.284Z,11.30
2019-05-25T01:07:53.545Z,11.30
2019-05-25T01:10:20.845Z,11.10
2019-05-25T01:12:48.251Z,11.00
2019-05-25T01:15:15.847Z,10.90
2019-05-25T01:17:43.036Z,11.00
2019-05-25T01:20:11.417Z,11.10
2019-05-25T01:22:38.677Z,11.10
2019-05-25T01:25:07.180Z,11.20
2019-05-25T01:27:34.380Z,11.20
2019-05-25T01:30:01.576Z,11.20
2019-05-25T01:32:28.816Z,11.20
2019-05-25T01:34:55.997Z,11.20
2019-05-25T01:37:23.186Z,11.20
2019-05-25T01:39:50.367Z,11.20
2019-05-25T01:42:17.568Z,11.20
2019-05-25T01:44:45.189Z,11.10
2019-05-25T01:47:12.402Z,11.10
2019-05-25T01:49:39.582Z,11.00
2019-05-25T01:52:06.771Z,11.00
2019-05-25T01:54:33.972Z,11.00
2019-05-25T01:57:01.477Z,10.90
2019-05-25T01:59:28.681Z,10.90
2019-05-25T02:01:55.891Z,10.80
2019-05-25T02:04:23.064Z,10.80
2019-05-25T02:06:50.346Z,10.70
2019-05-25T02:09:17.536Z,10.70
2019-05-25T02:11:44.708Z,10.70
2019-05-25T02:14:11.889Z,10.80
2019-05-25T02:16:39.074Z,10.90
2019-05-25T02:19:06.270Z,10.90
2019-05-25T02:21:33.444Z,10.90
2019-05-25T02:24:00.640Z,11.00
2019-05-25T02:26:27.864Z,11.00
2019-05-25T02:28:55.039Z,10.90
2019-05-25T02:31:22.224Z,10.90
2019-05-25T02:33:49.406Z,10.90
2019-05-25T02:36:16.591Z,10.90
2019-05-25T02:38:43.777Z,10.90
2019-05-25T02:41:10.977Z,11.00
2019-05-25T02:43:38.155Z,10.90
2019-05-25T02:46:05.370Z,10.80
2019-05-25T02:48:32.560Z,10.80
2019-05-25T02:50:59.757Z,10.80
2019-05-25T02:53:26.948Z,10.80
2019-05-25T02:55:54.188Z,10.80
2019-05-25T02:58:21.393Z,10.80
2019-05-25T03:00:48.592Z,10.70
2019-05-25T03:03:15.978Z,10.70
2019-05-25T03:05:43.692Z,10.80
2019-05-25T03:08:10.959Z,10.80
2019-05-25T03:10:38.856Z,10.80
2019-05-25T03:13:06.065Z,10.80
2019-05-25T03:15:33.262Z,10.60
2019-05-25T03:18:00.433Z,10.40
2019-05-25T03:20:27.624Z,10.40
2019-05-25T03:22:54.860Z,10.40
2019-05-25T03:25:22.057Z,10.50
2019-05-25T03:27:49.268Z,10.50
2019-05-25T03:30:28.284Z,10.40
2019-05-25T03:32:55.625Z,10.40
2019-05-25T03:35:22.813Z,10.50
2019-05-25T03:37:50.002Z,10.50
2019-05-25T03:40:17.200Z,10.40
2019-05-25T03:42:44.792Z,10.50
2019-05-25T03:45:12.008Z,10.50
2019-05-25T03:47:40.143Z,10.50
2019-05-25T03:50:07.324Z,10.50
2019-05-25T03:52:34.510Z,10.60
2019-05-25T03:55:01.769Z,10.70
2019-05-25T03:57:28.981Z,10.80
2019-05-25T03:59:56.181Z,10.70
2019-05-25T04:02:23.484Z,10.70
2019-05-25T04:04:50.692Z,10.70
2019-05-25T04:07:17.890Z,10.60
2019-05-25T04:09:45.268Z,10.50
2019-05-25T04:12:12.512Z,10.50
2019-05-25T04:14:41.949Z,10.60
2019-05-25T04:17:09.169Z,10.70
2019-05-25T04:19:36.409Z,10.90
2019-05-25T04:22:03.614Z,10.90
2019-05-25T04:24:30.798Z,11.00
2019-05-25T04:26:58.079Z,11.10
2019-05-25T04:29:25.282Z,11.20
2019-05-25T04:31:52.573Z,11.30
2019-05-25T04:34:19.781Z,11.30
2019-05-25T04:36:47.005Z,11.40
2019-05-25T04:39:14.205Z,11.50
2019-05-25T04:41:41.398Z,11.60
2019-05-25T04:44:08.605Z,11.70
2019-05-25T04:46:35.800Z,11.60
2019-05-25T04:49:03.927Z,11.70
2019-05-25T04:51:31.141Z,11.80
2019-05-25T04:53:58.320Z,11.80
2019-05-25T04:56:38.825Z,11.90
2019-05-25T04:58:54.592Z,12.00
2019-05-25T05:01:22.721Z,12.00
2019-05-25T05:03:50.164Z,12.10
2019-05-25T05:06:17.352Z,12.30
2019-05-25T05:08:44.701Z,12.50
2019-05-25T05:11:11.906Z,12.70
2019-05-25T05:13:39.100Z,12.90
2019-05-25T05:16:06.285Z,13.00
2019-05-25T05:18:33.500Z,12.90
2019-05-25T05:21:00.867Z,13.10
2019-05-25T05:23:28.045Z,13.20
2019-05-25T05:25:55.218Z,13.40
2019-05-25T05:28:22.422Z,13.60
2019-05-25T05:30:49.596Z,14.00
2019-05-25T05:33:16.789Z,14.10
2019-05-25T05:35:45.372Z,14.50
2019-05-25T05:38:12.751Z,14.70
2019-05-25T05:40:40.128Z,15.00
2019-05-25T05:43:11.158Z,15.40
2019-05-25T05:45:40.454Z,15.70
2019-05-25T05:48:09.626Z,16.10
2019-05-25T05:50:38.697Z,16.30
2019-05-25T05:53:05.913Z,16.40
2019-05-25T05:55:33.306Z,16.70
2019-05-25T05:58:01.314Z,16.90
2019-05-25T06:00:28.529Z,17.10
2019-05-25T06:02:55.733Z,17.20
2019-05-25T06:05:22.933Z,17.40
2019-05-25T06:07:50.113Z,17.70
2019-05-25T06:10:17.400Z,18.00
2019-05-25T06:12:44.617Z,18.10
2019-05-25T06:15:12.167Z,18.50
2019-05-25T06:17:39.365Z,18.50
2019-05-25T06:20:07.118Z,18.60
2019-05-25T06:22:34.317Z,18.80
2019-05-25T06:25:01.580Z,19.00
2019-05-25T06:27:28.765Z,19.10
2019-05-25T06:29:55.968Z,19.00
2019-05-25T06:32:23.184Z,19.30
2019-05-25T06:34:50.429Z,19.40
2019-05-25T06:37:17.612Z,19.60
2019-05-25T06:39:44.860Z,19.60
2019-05-25T06:42:12.064Z,19.80
2019-05-25T06:44:39.184Z,20.00
2019-05-25T06:47:06.392Z,20.10
2019-05-25T06:49:33.624Z,20.30
2019-05-25T06:52:01.829Z,20.40
2019-05-25T06:54:29.091Z,20.50
2019-05-25T06:56:56.385Z,20.60
2019-05-25T06:59:23.561Z,20.90
2019-05-25T07:01:50.776Z,21.00
2019-05-25T07:04:17.964Z,21.10
2019-05-25T07:06:45.196Z,21.40
2019-05-25T07:09:12.452Z,21.50
2019-05-25T07:11:39.646Z,21.50
2019-05-25T07:14:07.045Z,21.30
2019-05-25T07:16:34.250Z,21.60
2019-05-25T07:19:01.653Z,22.00
2019-05-25T07:21:28.981Z,22.00
2019-05-25T07:23:56.200Z,21.80
2019-05-25T07:26:23.434Z,22.00
2019-05-25T07:28:50.656Z,22.00
2019-05-25T07:31:17.989Z,22.00
2019-05-25T07:33:45.219Z,21.90
2019-05-25T07:36:12.476Z,21.90
2019-05-25T07:38:39.676Z,22.00
2019-05-25T07:41:06.890Z,22.00
2019-05-25T07:43:34.109Z,21.90
2019-05-25T07:46:01.317Z,21.90
2019-05-25T07:48:28.660Z,22.00
2019-05-25T07:50:55.875Z,22.00
2019-05-25T07:53:24.146Z,22.10
2019-05-25T07:55:51.354Z,22.40
2019-05-25T07:58:18.806Z,22.30
2019-05-25T08:00:46.153Z,22.40
2019-05-25T08:03:13.369Z,22.80
2019-05-25T08:05:40.581Z,23.20
2019-05-25T08:08:07.784Z,22.90
2019-05-25T08:10:35.025Z,22.70
2019-05-25T08:13:02.216Z,22.70
2019-05-25T08:15:29.556Z,22.70
2019-05-25T08:17:56.816Z,23.00
2019-05-25T08:20:24.000Z,22.90
2019-05-25T08:22:51.185Z,22.70
2019-05-25T08:25:18.372Z,22.80
2019-05-25T08:27:45.597Z,22.80
2019-05-25T08:30:12.937Z,22.90
2019-05-25T08:32:40.276Z,23.10
2019-05-25T08:35:07.953Z,23.20
2019-05-25T08:37:35.657Z,23.30
2019-05-25T08:40:03.928Z,23.60
2019-05-25T08:42:31.371Z,23.50
2019-05-25T08:44:58.613Z,23.40
2019-05-25T08:47:25.792Z,23.20
2019-05-25T08:49:53.168Z,23.20
2019-05-25T08:52:20.359Z,23.20
2019-05-25T08:54:48.482Z,23.30
2019-05-25T08:57:18.585Z,23.40
2019-05-25T08:59:45.220Z,23.40
2019-05-25T09:02:12.425Z,23.30
2019-05-25T09:04:39.658Z,23.60
2019-05-25T09:07:06.860Z,23.90
2019-05-25T09:09:34.052Z,24.30
2019-05-25T09:12:02.442Z,24.40
2019-05-25T09:14:31.591Z,24.20
2019-05-25T09:16:59.025Z,24.00
2019-05-25T09:19:26.233Z,23.80
2019-05-25T09:22:02.548Z,23.80
2019-05-25T09:24:22.529Z,23.80
2019-05-25T09:26:49.709Z,23.50
2019-05-25T09:29:16.928Z,23.40
2019-05-25T09:31:44.657Z,23.10
2019-05-25T09:34:11.863Z,23.10
2019-05-25T09:36:39.049Z,23.20
2019-05-25T09:39:06.656Z,23.20
2019-05-25T09:41:33.824Z,23.20
2019-05-25T09:44:01.020Z,23.50
2019-05-25T09:46:28.204Z,23.90
2019-05-25T09:48:55.456Z,24.10
2019-05-25T09:51:22.670Z,24.10
2019-05-25T09:53:49.894Z,24.10
2019-05-25T09:56:17.088Z,24.00
2019-05-25T09:58:44.278Z,24.10
2019-05-25T10:01:11.457Z,23.90
2019-05-25T10:03:38.624Z,24.10
2019-05-25T10:06:12.221Z,24.10
2019-05-25T10:08:34.900Z,24.00
2019-05-25T10:11:02.189Z,23.90
2019-05-25T10:13:29.389Z,24.00
2019-05-25T10:15:56.580Z,24.10
2019-05-25T10:18:23.760Z,24.20
2019-05-25T10:20:51.024Z,24.30
2019-05-25T10:23:18.221Z,24.40
2019-05-25T10:25:45.439Z,24.60
2019-05-25T10:28:12.655Z,24.80
2019-05-25T10:30:39.977Z,24.90
2019-05-25T10:33:07.149Z,25.00
2019-05-25T10:35:34.449Z,24.90
2019-05-25T10:38:01.658Z,24.80
2019-05-25T10:40:28.957Z,24.70
2019-05-25T10:42:56.169Z,24.70
2019-05-25T10:45:23.368Z,24.60
2019-05-25T10:47:50.576Z,24.50
2019-05-25T10:50:17.983Z,24.70
2019-05-25T10:52:45.268Z,24.60
2019-05-25T10:55:14.469Z,24.50
2019-05-25T10:57:41.676Z,24.60
2019-05-25T11:00:09.747Z,24.60
2019-05-25T11:02:36.953Z,24.60
2019-05-25T11:05:04.358Z,24.50
2019-05-25T11:07:31.551Z,24.60
2019-05-25T11:09:58.764Z,24.70
2019-05-25T11:12:26.206Z,24.50
2019-05-25T11:14:53.579Z,24.50
2019-05-25T11:17:20.856Z,24.70
2019-05-25T11:19:48.050Z,24.60
2019-05-25T11:22:15.265Z,24.70
2019-05-25T11:24:42.441Z,25.00
2019-05-25T11:27:09.794Z,25.20
2019-05-25T11:29:36.996Z,25.20
2019-05-25T11:32:05.714Z,25.20
2019-05-25T11:34:33.682Z,25.10
2019-05-25T11:37:00.879Z,25.10
2019-05-25T11:39:28.062Z,24.90
2019-05-25T11:41:55.246Z,25.10
2019-05-25T11:44:22.430Z,25.20
2019-05-25T11:46:49.614Z,25.20
2019-05-25T11:49:22.552Z,25.20
2019-05-25T11:51:45.901Z,25.20
2019-05-25T11:54:13.100Z,25.30
2019-05-25T11:56:40.325Z,25.30
2019-05-25T11:59:08.546Z,25.60
2019-05-25T12:01:35.720Z,25.50
2019-05-25T12:04:02.909Z,25.50
2019-05-25T12:06:30.096Z,25.20
2019-05-25T12:08:57.300Z,24.90
2019-05-25T12:11:24.520Z,24.70
2019-05-25T12:13:51.720Z,24.70
2019-05-25T12:16:19.012Z,24.70
2019-05-25T12:18:46.332Z,24.70
2019-05-25T12:21:13.556Z,24.60
2019-05-25T12:23:40.752Z,24.50
2019-05-25T12:26:07.953Z,24.40
2019-05-25T12:28:35.271Z,24.30
2019-05-25T12:31:02.469Z,24.00
2019-05-25T12:33:29.660Z,23.60
2019-05-25T12:35:56.848Z,23.10
2019-05-25T12:38:24.060Z,22.90
2019-05-25T12:40:53.967Z,22.80
2019-05-25T12:43:20.530Z,22.50
2019-05-25T12:45:47.712Z,22.20
2019-05-25T12:48:14.893Z,21.90
2019-05-25T12:50:42.220Z,21.80
2019-05-25T12:53:09.412Z,21.70
2019-05-25T12:55:36.612Z,21.70
2019-05-25T12:58:04.008Z,21.80
2019-05-25T13:00:32.136Z,21.80
2019-05-25T13:02:59.329Z,21.90
2019-05-25T13:05:34.302Z,22.00
2019-05-25T13:07:55.705Z,22.20
2019-05-25T13:10:22.941Z,22.30
2019-05-25T13:12:50.132Z,22.40
2019-05-25T13:15:17.341Z,22.60
2019-05-25T13:17:44.605Z,22.70
2019-05-25T13:20:12.742Z,22.80
2019-05-25T13:22:39.917Z,22.90
2019-05-25T13:25:07.497Z,23.00
2019-05-25T13:27:34.940Z,23.00
2019-05-25T13:30:03.306Z,23.00
2019-05-25T13:32:31.002Z,23.00
2019-05-25T13:34:58.233Z,23.10
2019-05-25T13:37:25.415Z,23.30
2019-05-25T13:39:52.608Z,23.50
2019-05-25T13:42:19.808Z,23.60
2019-05-25T13:44:47.120Z,23.80
2019-05-25T13:47:14.341Z,23.90
2019-05-25T13:49:41.557Z,23.90
2019-05-25T13:52:08.740Z,24.10
2019-05-25T13:54:35.957Z,24.20
2019-05-25T13:57:03.292Z,24.40
2019-05-25T13:59:30.488Z,24.60
2019-05-25T14:01:57.723Z,24.70
2019-05-25T14:04:25.029Z,24.80
2019-05-25T14:06:52.216Z,24.80
2019-05-25T14:09:19.419Z,24.80
2019-05-25T14:11:46.712Z,24.90
2019-05-25T14:14:13.924Z,25.00
2019-05-25T14:16:41.148Z,24.90
2019-05-25T14:19:08.342Z,25.00
2019-05-25T14:21:35.531Z,25.00
2019-05-25T14:24:02.716Z,25.00
2019-05-25T14:26:29.905Z,24.90
2019-05-25T14:28:57.192Z,25.00
2019-05-25T14:31:24.496Z,24.90
2019-05-25T14:33:51.744Z,24.70
2019-05-25T14:36:18.961Z,24.80
2019-05-25T14:38:46.259Z,25.00
2019-05-25T14:41:13.483Z,24.90
2019-05-25T14:43:40.720Z,24.80
2019-05-25T14:46:07.896Z,24.80
2019-05-25T14:48:35.284Z,24.90
2019-05-25T14:51:02.453Z,25.00
2019-05-25T14:53:29.631Z,25.00
2019-05-25T14:55:56.808Z,24.90
2019-05-25T14:58:23.980Z,24.90
2019-05-25T15:00:51.166Z,24.80
2019-05-25T15:03:18.411Z,24.90
2019-05-25T15:05:45.681Z,25.10
2019-05-25T15:08:12.869Z,25.30
2019-05-25T15:10:40.062Z,25.30
2019-05-25T15:13:07.265Z,25.30
2019-05-25T15:15:34.473Z,25.20
2019-05-25T15:18:01.844Z,25.10
2019-05-25T15:20:29.017Z,25.10
2019-05-25T15:22:56.220Z,25.00
2019-05-25T15:25:23.448Z,24.90
2019-05-25T15:27:50.663Z,25.00
2019-05-25T15:30:18.631Z,25.10
2019-05-25T15:32:45.940Z,25.50
2019-05-25T15:35:13.227Z,25.60
2019-05-25T15:37:40.429Z,25.80
2019-05-25T15:40:08.757Z,26.10
2019-05-25T15:42:35.984Z,26.20
2019-05-25T15:45:03.770Z,26.00
2019-05-25T15:47:30.958Z,25.80
2019-05-25T15:49:58.153Z,25.50
2019-05-25T15:52:25.373Z,25.80
2019-05-25T15:54:52.578Z,26.30
2019-05-25T15:57:19.787Z,26.20
2019-05-25T15:59:46.994Z,26.10
2019-05-25T16:02:14.293Z,26.30
2019-05-25T16:04:41.646Z,26.40
2019-05-25T16:07:09.034Z,26.50
2019-05-25T16:09:36.258Z,26.50
2019-05-25T16:12:03.640Z,26.20
2019-05-25T16:14:30.958Z,26.10
2019-05-25T16:16:58.158Z,26.00
2019-05-25T16:19:25.373Z,25.90
2019-05-25T16:21:52.588Z,25.60
2019-05-25T16:24:19.865Z,25.30
2019-05-25T16:26:47.172Z,25.10
2019-05-25T16:29:14.632Z,24.80
2019-05-25T16:31:41.977Z,24.60
2019-05-25T16:34:09.364Z,24.40
2019-05-25T16:36:36.717Z,24.40
2019-05-25T16:39:05.660Z,24.30
2019-05-25T16:41:32.824Z,24.30
2019-05-25T16:44:00.185Z,24.20
2019-05-25T16:46:27.422Z,24.10
2019-05-25T16:48:54.656Z,23.90
2019-05-25T16:51:22.144Z,23.60
2019-05-25T16:53:49.360Z,23.60
2019-05-25T16:56:16.781Z,23.60
2019-05-25T16:58:43.988Z,23.50
2019-05-25T17:01:11.325Z,23.40
2019-05-25T17:03:38.537Z,23.50
2019-05-25T17:06:06.641Z,23.60
2019-05-25T17:08:33.841Z,23.50
2019-05-25T17:11:01.055Z,23.30
2019-05-25T17:13:28.417Z,23.30
2019-05-25T17:15:55.632Z,23.20
2019-05-25T17:18:22.849Z,23.20
2019-05-25T17:20:50.059Z,23.10
2019-05-25T17:23:17.253Z,23.00
2019-05-25T17:25:44.435Z,23.00
2019-05-25T17:28:11.656Z,23.10
2019-05-25T17:30:41.320Z,23.00
2019-05-25T17:33:08.497Z,22.90
2019-05-25T17:35:35.780Z,22.70
2019-05-25T17:38:03.580Z,22.60
2019-05-25T17:40:30.848Z,22.60
2019-05-25T17:42:58.058Z,22.60
2019-05-25T17:45:25.246Z,22.60
2019-05-25T17:47:52.436Z,22.70
2019-05-25T17:50:19.626Z,22.60
2019-05-25T17:52:46.843Z,22.50
2019-05-25T17:55:14.380Z,22.20
2019-05-25T17:57:41.567Z,22.30
2019-05-25T18:00:09.652Z,22.30
2019-05-25T18:02:36.834Z,22.20
2019-05-25T18:05:04.168Z,22.10
2019-05-25T18:07:31.412Z,22.00
2019-05-25T18:09:58.568Z,21.90
2019-05-25T18:12:25.756Z,21.70
2019-05-25T18:14:52.962Z,21.60
2019-05-25T18:17:20.252Z,21.50
2019-05-25T18:19:47.456Z,21.40
2019-05-25T18:22:14.656Z,21.20
2019-05-25T18:24:41.833Z,21.00
2019-05-25T18:27:09.040Z,20.80
2019-05-25T18:29:36.233Z,20.70
2019-05-25T18:32:03.652Z,20.70
2019-05-25T18:34:30.865Z,20.60
2019-05-25T18:36:58.087Z,20.60
2019-05-25T18:39:25.273Z,20.50
2019-05-25T18:41:52.491Z,20.40
2019-05-25T18:44:19.694Z,20.30
2019-05-25T18:46:46.900Z,20.20
2019-05-25T18:49:14.124Z,20.00
2019-05-25T18:51:41.344Z,19.90
2019-05-25T18:54:08.532Z,19.90
2019-05-25T18:56:35.740Z,19.80
2019-05-25T18:59:03.085Z,19.70
2019-05-25T19:01:30.307Z,19.50
2019-05-25T19:03:57.616Z,19.50
2019-05-25T19:06:24.859Z,19.40
2019-05-25T19:08:52.064Z,19.30
2019-05-25T19:11:19.409Z,19.20
2019-05-25T19:13:46.592Z,19.10
2019-05-25T19:16:13.832Z,19.00
2019-05-25T19:18:41.105Z,18.90
2019-05-25T19:21:08.311Z,18.80
2019-05-25T19:23:35.505Z,18.80
2019-05-25T19:26:02.930Z,18.80
2019-05-25T19:28:30.128Z,18.70
2019-05-25T19:30:57.303Z,18.70
2019-05-25T19:33:24.609Z,18.70
2019-05-25T19:35:54.161Z,18.60
2019-05-25T19:38:20.897Z,18.70
2019-05-25T19:40:48.100Z,18.70
2019-05-25T19:43:15.291Z,18.60
2019-05-25T19:45:42.460Z,18.60
2019-05-25T19:48:09.652Z,18.50
2019-05-25T19:50:36.841Z,18.40
2019-05-25T19:53:04.044Z,18.30
2019-05-25T19:55:31.245Z,18.20
2019-05-25T19:57:58.444Z,18.20
2019-05-25T20:00:25.605Z,18.00
2019-05-25T20:02:52.907Z,18.00
2019-05-25T20:05:20.095Z,17.90
2019-05-25T20:07:47.292Z,17.80
2019-05-25T20:10:14.688Z,17.80
2019-05-25T20:12:41.884Z,17.70
2019-05-25T20:15:09.567Z,17.60
2019-05-25T20:17:36.753Z,17.50
2019-05-25T20:20:05.777Z,17.40
2019-05-25T20:22:32.985Z,17.40
2019-05-25T20:25:00.176Z,17.30
2019-05-25T20:27:27.364Z,17.40
2019-05-25T20:29:54.536Z,17.40
2019-05-25T20:32:21.721Z,17.30
2019-05-25T20:34:48.917Z,17.30
2019-05-25T20:37:16.088Z,17.20
2019-05-25T20:39:43.269Z,17.20
2019-05-25T20:42:10.452Z,17.20
2019-05-25T20:44:37.625Z,17.20
2019-05-25T20:47:04.813Z,17.20
2019-05-25T20:49:32.025Z,17.10
2019-05-25T20:51:59.197Z,17.00
2019-05-25T20:54:26.374Z,16.90
2019-05-25T20:56:53.558Z,16.80
2019-05-25T20:59:20.720Z,16.70
2019-05-25T21:01:47.895Z,16.80
2019-05-25T21:04:15.073Z,16.90
2019-05-25T21:06:42.248Z,16.90
2019-05-25T21:09:09.602Z,16.80
2019-05-25T21:11:36.813Z,16.70
2019-05-25T21:14:04.103Z,16.90
2019-05-25T21:16:31.295Z,16.90
2019-05-25T21:18:58.476Z,17.00
2019-05-25T21:21:25.680Z,17.00
2019-05-25T21:23:52.876Z,17.00
2019-05-25T21:26:20.068Z,17.00
2019-05-25T21:28:47.247Z,16.90
2019-05-25T21:31:14.432Z,17.00
2019-05-25T21:33:41.736Z,17.10
2019-05-25T21:36:09.513Z,17.10
2019-05-25T21:38:36.861Z,17.20
2019-05-25T21:41:04.072Z,17.10
2019-05-25T21:43:31.247Z,17.20
2019-05-25T21:45:58.444Z,17.20
2019-05-25T21:48:25.745Z,17.30
2019-05-25T21:50:52.941Z,17.30
2019-05-25T21:53:20.141Z,17.30
2019-05-25T21:55:47.340Z,17.10
2019-05-25T21:58:14.508Z,17.10
2019-05-25T22:00:42.498Z,17.00
2019-05-25T22:03:09.680Z,16.80
2019-05-25T22:05:36.881Z,16.90
2019-05-25T22:08:04.181Z,16.80
2019-05-25T22:10:31.380Z,16.80
2019-05-25T22:12:58.685Z,16.80
2019-05-25T22:15:25.885Z,16.70
2019-05-25T22:17:54.976Z,16.60
2019-05-25T22:20:22.184Z,16.60
2019-05-25T22:22:49.480Z,16.50
2019-05-25T22:25:16.681Z,16.50
2019-05-25T22:27:43.869Z,16.40
2019-05-25T22:30:11.791Z,16.40
2019-05-25T22:32:38.973Z,16.40
2019-05-25T22:35:06.466Z,16.50
2019-05-25T22:37:33.662Z,16.40
2019-05-25T22:40:00.845Z,16.30
2019-05-25T22:42:28.056Z,16.50
2019-05-25T22:44:55.248Z,16.60
2019-05-25T22:47:22.456Z,16.50
2019-05-25T22:49:49.729Z,16.50
2019-05-25T22:52:16.912Z,16.40
2019-05-25T22:54:44.112Z,16.30
2019-05-25T22:57:11.333Z,16.30
2019-05-25T22:59:38.528Z,16.30
2019-05-25T23:02:05.743Z,16.30
2019-05-25T23:04:32.916Z,16.30
2019-05-25T23:07:00.116Z,16.20
2019-05-25T23:09:27.297Z,16.20
2019-05-25T23:11:54.508Z,16.30
2019-05-25T23:14:21.724Z,16.30
2019-05-25T23:16:48.920Z,16.20
2019-05-25T23:19:16.206Z,16.20
2019-05-25T23:21:43.396Z,16.20
2019-05-25T23:24:10.752Z,16.20
2019-05-25T23:26:38.124Z,16.10
2019-05-25T23:29:05.530Z,16.10
2019-05-25T23:31:32.631Z,16.00
2019-05-25T23:33:59.796Z,16.00
2019-05-25T23:36:27.189Z,15.80
2019-05-25T23:38:54.376Z,15.80
2019-05-25T23:41:21.553Z,15.70
2019-05-25T23:43:48.740Z,15.60
2019-05-25T23:46:15.921Z,15.60
2019-05-25T23:48:43.085Z,15.60
2019-05-25T23:51:10.384Z,15.60
2019-05-25T23:53:37.580Z,15.50
2019-05-25T23:56:04.748Z,15.40
2019-05-25T23:58:31.946Z,15.30
